createdAt,value
2023-03-25T00:00:33.315Z,24.60
2023-03-25T00:03:04.571Z,19.20
2023-03-25T00:05:33.111Z,21.00
2023-03-25T00:08:01.231Z,25.30
2023-03-25T00:10:30.392Z,22.80
2023-03-25T00:13:04.833Z,23.30
2023-03-25T00:15:42.887Z,22.20
2023-03-25T00:18:11.086Z,19.50
2023-03-25T00:20:41.050Z,22.20
2023-03-25T00:23:10.437Z,23.40
2023-03-25T00:25:39.676Z,19.40
2023-03-25T00:28:08.554Z,18.30
2023-03-25T00:30:42.459Z,20.80
2023-03-25T00:33:10.956Z,20.70
2023-03-25T00:35:44.932Z,17.40
2023-03-25T00:38:13.062Z,19.50
2023-03-25T00:40:40.961Z,21.70
2023-03-25T00:43:10.872Z,24.00
2023-03-25T00:45:39.037Z,21.70
2023-03-25T00:48:07.188Z,20.90
2023-03-25T00:50:35.234Z,23.30
2023-03-25T00:53:15.299Z,24.70
2023-03-25T00:55:44.519Z,22.00
2023-03-25T00:58:12.415Z,17.80
2023-03-25T01:00:49.752Z,19.30
2023-03-25T01:03:19.540Z,17.50
2023-03-25T01:05:48.355Z,18.10
2023-03-25T01:08:17.684Z,18.40
2023-03-25T01:10:47.198Z,20.20
2023-03-25T01:13:15.328Z,19.40
2023-03-25T01:15:47.781Z,18.90
2023-03-25T01:18:17.895Z,20.70
2023-03-25T01:20:45.839Z,21.30
2023-03-25T01:23:14.320Z,22.60
2023-03-25T01:25:43.025Z,18.60
2023-03-25T01:28:11.014Z,17.10
2023-03-25T01:30:39.889Z,18.90
2023-03-25T01:33:12.512Z,20.30
2023-03-25T01:35:41.607Z,18.70
2023-03-25T01:38:13.142Z,19.40
2023-03-25T01:40:41.790Z,17.30
2023-03-25T01:43:13.370Z,19.00
2023-03-25T01:45:45.291Z,18.50
2023-03-25T01:48:35.934Z,16.20
2023-03-25T01:51:14.526Z,18.70
2023-03-25T01:53:42.434Z,17.80
2023-03-25T01:56:13.590Z,18.60
2023-03-25T01:58:41.761Z,19.30
2023-03-25T02:01:13.872Z,21.30
2023-03-25T02:03:46.056Z,19.10
2023-03-25T02:06:25.149Z,17.10
2023-03-25T02:08:53.134Z,19.20
2023-03-25T02:11:25.645Z,18.40
2023-03-25T02:13:53.895Z,17.10
2023-03-25T02:16:44.340Z,17.00
2023-03-25T02:19:19.314Z,22.40
2023-03-25T02:22:14.874Z,18.10
2023-03-25T02:25:12.767Z,18.80
2023-03-25T02:27:52.623Z,22.40
2023-03-25T02:30:26.652Z,16.80
2023-03-25T02:33:17.289Z,18.00
2023-03-25T02:36:04.349Z,19.00
2023-03-25T02:41:39.251Z,18.80
2023-03-25T02:44:15.467Z,19.70
2023-03-25T02:46:53.845Z,17.80
2023-03-25T02:49:30.930Z,19.40
2023-03-25T02:52:06.059Z,19.00
2023-03-25T02:54:37.143Z,17.50
2023-03-25T02:57:08.000Z,22.30
2023-03-25T02:59:38.338Z,16.90
2023-03-25T03:02:09.198Z,18.40
2023-03-25T03:04:48.553Z,19.00
2023-03-25T03:07:31.947Z,21.60
2023-03-25T03:10:01.126Z,18.80
2023-03-25T03:12:54.934Z,19.00
2023-03-25T03:15:29.346Z,20.10
2023-03-25T03:18:14.423Z,25.00
2023-03-25T03:20:54.820Z,23.40
2023-03-25T03:23:26.883Z,19.80
2023-03-25T03:26:05.664Z,29.90
2023-03-25T03:28:48.112Z,21.10
2023-03-25T03:31:48.215Z,23.20
2023-03-25T03:34:34.833Z,23.70
2023-03-25T03:37:07.302Z,18.00
2023-03-25T03:39:36.830Z,21.60
2023-03-25T03:42:08.425Z,20.70
2023-03-25T03:44:38.458Z,22.70
2023-03-25T03:47:11.116Z,22.20
2023-03-25T03:49:50.553Z,21.10
2023-03-25T03:52:22.377Z,21.60
2023-03-25T03:54:56.964Z,29.90
2023-03-25T03:57:37.984Z,21.60
2023-03-25T04:00:18.179Z,20.70
2023-03-25T04:03:01.753Z,21.80
2023-03-25T04:05:32.430Z,24.70
2023-03-25T04:08:14.320Z,20.20
2023-03-25T04:10:52.847Z,22.00
2023-03-25T04:13:21.561Z,19.80
2023-03-25T04:15:51.014Z,19.50
2023-03-25T04:18:23.490Z,24.30
2023-03-25T04:20:51.532Z,22.50
2023-03-25T04:23:21.429Z,21.50
2023-03-25T04:25:55.213Z,22.20
2023-03-25T04:28:27.921Z,21.40
2023-03-25T04:30:57.629Z,21.10
2023-03-25T04:33:25.591Z,19.50
2023-03-25T04:35:54.297Z,21.80
2023-03-25T04:38:23.098Z,19.60
2023-03-25T04:40:51.125Z,19.60
2023-03-25T04:43:19.675Z,21.20
2023-03-25T04:45:55.025Z,20.50
2023-03-25T04:50:56.068Z,23.30
2023-03-25T04:53:24.034Z,18.30
2023-03-25T04:55:52.858Z,20.00
2023-03-25T04:58:21.447Z,23.00
2023-03-25T05:00:51.798Z,22.00
2023-03-25T05:03:30.149Z,23.40
2023-03-25T05:05:58.013Z,23.20
2023-03-25T05:08:27.177Z,21.50
2023-03-25T05:10:55.416Z,25.00
2023-03-25T05:13:23.932Z,23.60
2023-03-25T05:15:54.192Z,24.70
2023-03-25T05:18:22.297Z,20.50
2023-03-25T05:21:00.979Z,21.80
2023-03-25T05:23:31.770Z,21.90
2023-03-25T05:25:59.870Z,21.40
2023-03-25T05:28:31.062Z,22.10
2023-03-25T05:30:59.541Z,22.20
2023-03-25T05:33:29.316Z,25.70
2023-03-25T05:35:57.789Z,24.40
2023-03-25T05:38:26.169Z,23.60
2023-03-25T05:40:54.066Z,19.60
2023-03-25T05:43:29.352Z,19.10
2023-03-25T05:45:57.902Z,21.20
2023-03-25T05:48:26.566Z,20.30
2023-03-25T05:50:56.706Z,24.90
2023-03-25T05:53:26.312Z,22.20
2023-03-25T05:55:54.216Z,22.40
2023-03-25T05:58:25.233Z,30.00
2023-03-25T06:00:54.723Z,25.90
2023-03-25T06:03:26.158Z,25.00
2023-03-25T06:05:54.947Z,21.50
2023-03-25T06:08:26.544Z,22.80
2023-03-25T06:11:00.891Z,21.10
2023-03-25T06:13:34.054Z,19.50
2023-03-25T06:16:03.443Z,19.00
2023-03-25T06:18:32.832Z,23.70
2023-03-25T06:21:00.691Z,22.90
2023-03-25T06:23:29.153Z,19.50
2023-03-25T06:25:58.709Z,20.70
2023-03-25T06:28:28.416Z,23.80
2023-03-25T06:30:59.929Z,19.40
2023-03-25T06:33:48.631Z,21.80
2023-03-25T06:36:18.842Z,21.10
2023-03-25T06:38:50.427Z,25.80
2023-03-25T06:41:20.869Z,25.90
2023-03-25T06:43:58.732Z,29.80
2023-03-25T06:46:49.178Z,41.40
2023-03-25T06:49:30.329Z,42.90
2023-03-25T06:51:58.646Z,48.30
2023-03-25T06:54:26.546Z,49.90
2023-03-25T06:56:55.411Z,37.00
2023-03-25T06:59:23.503Z,32.10
2023-03-25T07:01:52.088Z,29.10
2023-03-25T07:04:20.373Z,29.80
2023-03-25T07:06:57.920Z,31.10
2023-03-25T07:09:26.092Z,35.50
2023-03-25T07:11:53.996Z,27.30
2023-03-25T07:14:29.471Z,28.30
2023-03-25T07:16:57.695Z,19.80
2023-03-25T07:19:32.069Z,19.90
2023-03-25T07:22:02.993Z,28.60
2023-03-25T07:24:31.781Z,20.70
2023-03-25T07:26:59.944Z,23.30
2023-03-25T07:29:28.552Z,25.90
2023-03-25T07:31:57.768Z,25.30
2023-03-25T07:34:25.903Z,20.90
2023-03-25T07:36:53.768Z,23.90
2023-03-25T07:39:22.197Z,21.30
2023-03-25T07:41:52.160Z,25.00
2023-03-25T07:44:33.760Z,21.20
2023-03-25T07:47:07.977Z,26.10
2023-03-25T07:49:36.681Z,19.80
2023-03-25T07:52:04.663Z,21.90
2023-03-25T07:54:32.643Z,23.40
2023-03-25T07:57:00.842Z,23.60
2023-03-25T07:59:30.444Z,24.00
2023-03-25T08:01:58.723Z,19.30
2023-03-25T08:04:26.708Z,25.20
2023-03-25T08:06:57.026Z,24.40
2023-03-25T08:09:25.303Z,24.20
2023-03-25T08:11:53.662Z,19.90
2023-03-25T08:14:22.502Z,21.70
2023-03-25T08:16:50.896Z,24.90
2023-03-25T08:19:18.922Z,20.30
2023-03-25T08:21:48.628Z,20.90
2023-03-25T08:24:16.788Z,21.70
2023-03-25T08:26:44.945Z,23.20
2023-03-25T08:29:14.912Z,22.10
2023-03-25T08:31:47.042Z,20.40
2023-03-25T08:34:17.087Z,23.70
2023-03-25T08:36:46.168Z,19.70
2023-03-25T08:39:17.543Z,22.50
2023-03-25T08:41:45.544Z,20.60
2023-03-25T08:44:13.493Z,26.90
2023-03-25T08:46:41.504Z,24.00
2023-03-25T08:49:10.284Z,28.60
2023-03-25T08:51:43.357Z,23.70
2023-03-25T08:54:11.537Z,25.50
2023-03-25T08:56:39.600Z,26.50
2023-03-25T08:59:12.998Z,23.50
2023-03-25T09:01:42.301Z,26.30
2023-03-25T09:04:11.377Z,21.90
2023-03-25T09:06:47.460Z,21.90
2023-03-25T09:09:18.234Z,23.40
2023-03-25T09:11:48.584Z,23.00
2023-03-25T09:14:16.492Z,26.90
2023-03-25T09:16:44.416Z,28.50
2023-03-25T09:19:12.523Z,26.10
2023-03-25T09:21:42.712Z,23.60
2023-03-25T09:24:10.559Z,24.00
2023-03-25T09:26:39.260Z,23.50
2023-03-25T09:29:07.623Z,23.80
2023-03-25T09:31:41.061Z,21.40
2023-03-25T09:34:09.773Z,31.00
2023-03-25T09:36:38.230Z,19.40
2023-03-25T09:39:08.448Z,23.00
2023-03-25T09:42:14.764Z,23.70
2023-03-25T09:45:19.637Z,26.30
2023-03-25T09:47:59.628Z,21.90
2023-03-25T09:50:29.636Z,26.70
2023-03-25T09:53:12.442Z,26.50
2023-03-25T09:55:42.607Z,23.60
2023-03-25T09:58:24.631Z,25.20
2023-03-25T10:01:28.199Z,31.00
2023-03-25T10:04:06.673Z,35.80
2023-03-25T10:06:43.704Z,28.00
2023-03-25T10:09:20.383Z,23.50
2023-03-25T10:12:05.713Z,25.80
2023-03-25T10:15:31.377Z,20.70
2023-03-25T10:18:07.077Z,23.10
2023-03-25T10:20:51.686Z,23.10
2023-03-25T10:23:32.069Z,23.20
2023-03-25T10:26:06.663Z,24.10
2023-03-25T10:28:43.628Z,21.50
2023-03-25T10:31:15.975Z,26.50
2023-03-25T10:33:52.519Z,30.20
2023-03-25T10:36:22.953Z,28.20
2023-03-25T10:38:54.433Z,25.30
2023-03-25T10:41:30.980Z,27.30
2023-03-25T10:43:58.894Z,23.40
2023-03-25T10:46:47.860Z,25.10
2023-03-25T10:49:21.124Z,32.80
2023-03-25T10:51:53.036Z,23.40
2023-03-25T10:54:25.227Z,24.40
2023-03-25T10:56:53.349Z,24.70
2023-03-25T10:59:21.450Z,26.40
2023-03-25T11:01:49.430Z,25.80
2023-03-25T11:04:19.902Z,28.60
2023-03-25T11:06:55.563Z,24.30
2023-03-25T11:09:30.390Z,26.70
2023-03-25T11:12:05.168Z,27.90
2023-03-25T11:14:38.857Z,31.60
2023-03-25T11:17:15.323Z,29.70
2023-03-25T11:19:52.487Z,31.50
2023-03-25T11:22:24.827Z,22.50
2023-03-25T11:24:57.378Z,29.70
2023-03-25T11:27:28.627Z,24.90
2023-03-25T11:30:03.740Z,24.30
2023-03-25T11:32:38.431Z,21.50
2023-03-25T11:35:18.518Z,24.10
2023-03-25T11:37:49.358Z,25.80
2023-03-25T11:40:18.689Z,24.90
2023-03-25T11:42:54.957Z,26.20
2023-03-25T11:45:39.179Z,31.40
2023-03-25T11:48:16.383Z,24.50
2023-03-25T11:50:52.871Z,27.10
2023-03-25T11:53:27.596Z,29.00
2023-03-25T11:56:02.178Z,24.70
2023-03-25T11:58:33.664Z,25.10
2023-03-25T12:01:17.818Z,25.40
2023-03-25T12:03:46.145Z,26.60
2023-03-25T12:06:22.165Z,25.00
2023-03-25T12:08:58.429Z,32.20
2023-03-25T12:11:50.885Z,26.80
2023-03-25T12:14:33.569Z,26.70
2023-03-25T12:17:06.420Z,30.00
2023-03-25T12:19:43.244Z,27.60
2023-03-25T12:22:14.368Z,25.70
2023-03-25T12:24:59.170Z,26.20
2023-03-25T12:27:27.467Z,31.00
2023-03-25T12:30:17.472Z,27.40
2023-03-25T12:32:58.509Z,30.20
2023-03-25T12:35:43.982Z,27.80
2023-03-25T12:38:36.515Z,24.00
2023-03-25T12:41:32.922Z,28.90
2023-03-25T12:44:21.996Z,23.30
2023-03-25T12:46:56.236Z,35.00
2023-03-25T12:49:40.526Z,25.20
2023-03-25T12:52:26.949Z,26.80
2023-03-25T12:55:16.124Z,23.80
2023-03-25T12:58:26.104Z,26.40
2023-03-25T13:01:23.288Z,25.50
2023-03-25T13:04:00.612Z,28.70
2023-03-25T13:07:02.950Z,30.80
2023-03-25T13:09:36.135Z,27.40
2023-03-25T13:12:05.467Z,26.90
2023-03-25T13:14:36.900Z,26.30
2023-03-25T13:17:13.083Z,25.80
2023-03-25T13:19:44.376Z,28.00
2023-03-25T13:22:24.829Z,32.40
2023-03-25T13:24:55.760Z,27.10
2023-03-25T13:27:24.957Z,29.10
2023-03-25T13:29:54.909Z,28.70
2023-03-25T13:32:50.621Z,28.70
2023-03-25T13:35:38.699Z,32.10
2023-03-25T13:38:13.135Z,32.40
2023-03-25T13:40:52.361Z,29.70
2023-03-25T13:43:47.497Z,32.50
2023-03-25T13:46:18.761Z,30.10
2023-03-25T13:48:56.111Z,33.00
2023-03-25T13:51:24.242Z,29.50
2023-03-25T13:53:58.389Z,27.30
2023-03-25T13:57:07.998Z,34.10
2023-03-25T13:59:48.552Z,28.80
2023-03-25T14:02:39.106Z,27.10
2023-03-25T14:05:44.872Z,26.10
2023-03-25T14:08:20.801Z,37.50
2023-03-25T14:10:54.284Z,34.30
2023-03-25T14:14:03.559Z,33.50
2023-03-25T14:16:36.404Z,30.00
2023-03-25T14:19:07.610Z,30.20
2023-03-25T14:21:38.543Z,36.50
2023-03-25T14:24:31.578Z,35.80
2023-03-25T14:27:01.972Z,32.40
2023-03-25T14:29:55.290Z,37.50
2023-03-25T14:32:23.851Z,38.50
2023-03-25T14:34:52.371Z,35.40
2023-03-25T14:37:27.691Z,33.40
2023-03-25T14:39:59.418Z,31.90
2023-03-25T14:42:59.725Z,31.20
2023-03-25T14:45:50.941Z,36.80
2023-03-25T14:48:34.617Z,33.60
2023-03-25T14:51:23.437Z,33.20
2023-03-25T14:54:20.448Z,34.10
2023-03-25T14:56:55.041Z,36.90
2023-03-25T14:59:31.154Z,39.00
2023-03-25T15:04:34.220Z,42.10
2023-03-25T15:07:11.579Z,41.60
2023-03-25T15:09:50.622Z,38.60
2023-03-25T15:12:20.182Z,38.40
2023-03-25T15:14:49.332Z,40.30
2023-03-25T15:17:39.288Z,39.40
2023-03-25T15:20:12.148Z,38.40
2023-03-25T15:22:40.629Z,36.00
2023-03-25T15:25:15.158Z,36.90
2023-03-25T15:28:11.228Z,36.60
2023-03-25T15:30:46.349Z,36.90
2023-03-25T15:33:56.546Z,41.30
2023-03-25T15:36:54.162Z,43.60
2023-03-25T15:42:23.849Z,41.00
2023-03-25T15:44:58.801Z,57.90
2023-03-25T15:47:36.283Z,84.70
2023-03-25T15:50:36.432Z,63.70
2023-03-25T15:53:10.802Z,48.90
2023-03-25T15:55:46.305Z,51.70
2023-03-25T15:58:23.201Z,51.10
2023-03-25T16:00:53.164Z,57.30
2023-03-25T16:03:24.383Z,62.80
2023-03-25T16:05:59.617Z,40.20
2023-03-25T16:08:37.555Z,47.30
2023-03-25T16:11:19.401Z,49.10
2023-03-25T16:13:47.980Z,45.90
2023-03-25T16:16:17.435Z,44.70
2023-03-25T16:18:46.820Z,45.30
2023-03-25T16:21:14.691Z,48.20
2023-03-25T16:24:05.061Z,40.10
2023-03-25T16:26:44.503Z,47.80
2023-03-25T16:29:23.784Z,39.60
2023-03-25T16:31:53.103Z,47.60
2023-03-25T16:34:21.200Z,51.10
2023-03-25T16:36:50.874Z,49.90
2023-03-25T16:39:19.063Z,48.80
2023-03-25T16:41:50.865Z,58.90
2023-03-25T16:44:22.051Z,62.10
2023-03-25T16:46:51.791Z,52.60
2023-03-25T16:49:34.090Z,43.80
2023-03-25T16:52:04.132Z,42.80
2023-03-25T16:54:37.939Z,41.40
2023-03-25T16:57:07.570Z,50.90
2023-03-25T16:59:36.942Z,41.00
2023-03-25T17:02:22.785Z,43.00
2023-03-25T17:04:51.134Z,42.50
2023-03-25T17:07:20.891Z,41.80
2023-03-25T17:09:54.683Z,45.90
2023-03-25T17:12:23.308Z,38.40
2023-03-25T17:14:52.561Z,49.40
2023-03-25T17:17:41.661Z,43.70
2023-03-25T17:20:18.053Z,46.30
2023-03-25T17:23:08.324Z,44.70
2023-03-25T17:26:20.109Z,42.90
2023-03-25T17:28:54.909Z,43.80
2023-03-25T17:31:39.139Z,44.70
2023-03-25T17:34:17.620Z,46.40
2023-03-25T17:36:47.818Z,43.50
2023-03-25T17:39:24.961Z,44.60
2023-03-25T17:41:56.445Z,44.80
2023-03-25T17:44:25.981Z,47.80
2023-03-25T17:46:59.972Z,46.60
2023-03-25T17:49:28.251Z,50.20
2023-03-25T17:51:58.188Z,50.10
2023-03-25T17:54:27.125Z,57.60
2023-03-25T17:56:55.592Z,56.20
2023-03-25T17:59:30.916Z,47.80
2023-03-25T18:01:59.028Z,63.80
2023-03-25T18:04:26.995Z,68.80
2023-03-25T18:06:55.940Z,65.00
2023-03-25T18:09:24.409Z,66.20
2023-03-25T18:11:54.576Z,63.80
2023-03-25T18:14:25.136Z,67.70
2023-03-25T18:16:53.957Z,58.40
2023-03-25T18:19:24.066Z,62.00
2023-03-25T18:21:52.425Z,57.80
2023-03-25T18:24:22.038Z,59.10
2023-03-25T18:26:49.964Z,56.60
2023-03-25T18:29:24.330Z,50.80
2023-03-25T18:31:52.817Z,58.10
2023-03-25T18:34:21.228Z,60.60
2023-03-25T18:36:49.594Z,62.00
2023-03-25T18:39:19.342Z,58.70
2023-03-25T18:41:48.317Z,64.30
2023-03-25T18:44:16.740Z,51.40
2023-03-25T18:46:55.297Z,49.10
2023-03-25T18:49:23.853Z,58.10
2023-03-25T18:51:51.845Z,60.50
2023-03-25T18:54:19.946Z,56.40
2023-03-25T18:56:48.181Z,62.30
2023-03-25T18:59:20.778Z,60.70
2023-03-25T19:01:49.298Z,59.00
2023-03-25T19:04:18.280Z,62.60
2023-03-25T19:06:46.581Z,60.30
2023-03-25T19:09:18.477Z,52.30
2023-03-25T19:11:47.268Z,56.30
2023-03-25T19:14:15.534Z,59.20
2023-03-25T19:16:57.202Z,56.00
2023-03-25T19:19:31.754Z,61.60
2023-03-25T19:22:00.759Z,53.20
2023-03-25T19:24:28.718Z,57.30
2023-03-25T19:26:57.567Z,59.10
2023-03-25T19:29:26.291Z,55.50
2023-03-25T19:31:54.303Z,48.30
2023-03-25T19:34:24.586Z,59.20
2023-03-25T19:36:53.366Z,52.90
2023-03-25T19:39:22.932Z,61.90
2023-03-25T19:41:52.943Z,66.00
2023-03-25T19:44:21.492Z,55.30
2023-03-25T19:46:52.990Z,63.50
2023-03-25T19:49:36.328Z,62.10
2023-03-25T19:52:07.875Z,62.20
2023-03-25T19:54:35.753Z,54.00
2023-03-25T19:57:03.837Z,57.20
2023-03-25T19:59:37.099Z,55.80
2023-03-25T20:02:05.588Z,57.00
2023-03-25T20:04:34.194Z,52.30
2023-03-25T20:07:04.409Z,57.20
2023-03-25T20:09:32.431Z,50.70
2023-03-25T20:12:00.380Z,73.20
2023-03-25T20:14:30.261Z,58.00
2023-03-25T20:16:58.737Z,61.70
2023-03-25T20:19:27.063Z,57.90
2023-03-25T20:21:55.298Z,49.00
2023-03-25T20:24:23.393Z,48.00
2023-03-25T20:26:51.260Z,46.60
2023-03-25T20:29:19.961Z,47.90
2023-03-25T20:31:48.240Z,53.80
2023-03-25T20:34:19.926Z,49.00
2023-03-25T20:36:50.050Z,41.70
2023-03-25T20:39:18.051Z,40.90
2023-03-25T20:41:46.098Z,40.10
2023-03-25T20:44:14.013Z,37.40
2023-03-25T20:46:46.350Z,39.60
2023-03-25T20:49:15.603Z,37.50
2023-03-25T20:51:48.112Z,36.70
2023-03-25T20:54:17.761Z,36.70
2023-03-25T20:56:48.642Z,33.90
2023-03-25T20:59:18.471Z,35.30
2023-03-25T21:01:50.855Z,53.10
2023-03-25T21:04:22.537Z,40.50
2023-03-25T21:06:51.397Z,37.10
2023-03-25T21:09:19.346Z,39.20
2023-03-25T21:11:48.812Z,44.70
2023-03-25T21:14:18.438Z,44.20
2023-03-25T21:16:46.593Z,40.70
2023-03-25T21:19:15.690Z,42.50
2023-03-25T21:21:44.028Z,41.90
2023-03-25T21:24:14.066Z,40.80
2023-03-25T21:26:42.448Z,39.20
2023-03-25T21:29:10.388Z,37.40
2023-03-25T21:31:38.600Z,34.60
2023-03-25T21:34:06.659Z,31.70
2023-03-25T21:36:34.790Z,38.00
2023-03-25T21:39:04.583Z,30.20
2023-03-25T21:41:34.959Z,31.90
2023-03-25T21:44:02.903Z,30.90
2023-03-25T21:46:33.599Z,29.50
2023-03-25T21:49:03.977Z,31.80
2023-03-25T21:51:32.459Z,31.30
2023-03-25T21:54:00.722Z,30.90
2023-03-25T21:56:31.591Z,33.20
2023-03-25T21:59:02.023Z,34.60
2023-03-25T22:01:32.603Z,32.80
2023-03-25T22:04:01.108Z,28.00
2023-03-25T22:06:31.534Z,31.20
2023-03-25T22:09:03.751Z,32.20
2023-03-25T22:11:33.981Z,26.70
2023-03-25T22:14:02.460Z,33.40
2023-03-25T22:16:35.970Z,32.40
2023-03-25T22:19:04.911Z,29.70
2023-03-25T22:21:34.577Z,26.30
2023-03-25T22:24:05.337Z,30.50
2023-03-25T22:26:33.823Z,25.80
2023-03-25T22:29:06.132Z,28.40
2023-03-25T22:32:53.808Z,22.80
2023-03-25T22:35:23.943Z,23.20
2023-03-25T22:37:55.617Z,17.90
2023-03-25T22:40:23.698Z,16.80
2023-03-25T22:42:52.282Z,20.90
2023-03-25T22:45:20.970Z,19.30
2023-03-25T22:47:49.743Z,13.70
2023-03-25T22:50:17.685Z,14.30
2023-03-25T22:52:47.264Z,18.00
2023-03-25T22:55:15.475Z,13.90
2023-03-25T22:57:43.442Z,16.20
2023-03-25T23:00:14.789Z,15.80
2023-03-25T23:02:44.125Z,15.80
2023-03-25T23:05:14.802Z,11.50
2023-03-25T23:07:42.831Z,14.40
2023-03-25T23:10:13.735Z,16.30
2023-03-25T23:12:41.858Z,14.20
2023-03-25T23:15:14.185Z,13.00
2023-03-25T23:17:43.870Z,14.90
2023-03-25T23:20:11.859Z,16.40
2023-03-25T23:22:43.899Z,12.10
2023-03-25T23:25:12.530Z,17.90
2023-03-25T23:27:40.530Z,16.30
2023-03-25T23:30:08.973Z,20.00
2023-03-25T23:32:37.027Z,15.00
2023-03-25T23:35:05.371Z,16.40
2023-03-25T23:37:34.670Z,15.50
2023-03-25T23:40:04.361Z,15.70
2023-03-25T23:42:35.168Z,18.50
2023-03-25T23:45:04.782Z,17.90
2023-03-25T23:47:33.212Z,19.00
2023-03-25T23:50:02.186Z,16.20
2023-03-25T23:52:30.940Z,17.20
2023-03-25T23:54:59.175Z,23.70
2023-03-25T23:57:27.167Z,20.80
2023-03-25T23:59:55.711Z,21.50
